Time,TemperatureF,DewpointF,PressureIn,WindDirection,WindDirectionDegrees,WindSpeedMPH,WindSpeedGustMPH,Humidity,HourlyPrecipIn,Conditions,Clouds,dailyrainin,SoftwareType,DateUTC
2013-10-16 00:05:00,70.9,68.5,29.87,NNE,30,0.0,0.0,92,0.00,,,0.00,Wunderground v.1.15,2013-10-16 04:05:00,
2013-10-16 00:10:00,70.8,68.4,29.87,NNE,30,0.0,0.0,92,0.00,,,0.00,Wunderground v.1.15,2013-10-16 04:10:00,
2013-10-16 00:20:00,70.6,68.2,29.87,NNE,30,0.0,0.0,92,0.00,,,0.00,Wunderground v.1.15,2013-10-16 04:20:00,
2013-10-16 00:30:00,70.6,68.5,29.86,NNE,30,0.0,0.0,93,0.00,,,0.00,Wunderground v.1.15,2013-10-16 04:30:00,
2013-10-16 00:35:00,70.4,68.3,29.86,NNE,32,0.0,0.0,93,0.00,,,0.00,Wunderground v.1.15,2013-10-16 04:35:00,
2013-10-16 00:40:00,70.4,68.3,29.86,NE,39,0.0,0.0,93,0.00,,,0.00,Wunderground v.1.15,2013-10-16 04:40:00,
2013-10-16 00:50:00,70.3,68.5,29.86,NE,41,1.0,1.0,94,0.00,,,0.00,Wunderground v.1.15,2013-10-16 04:50:00,
2013-10-16 01:00:00,70.1,68.3,29.86,NE,41,0.0,0.0,94,0.00,,,0.00,Wunderground v.1.15,2013-10-16 05:00:00,
2013-10-16 01:05:00,70.1,68.3,29.86,NE,41,0.0,0.0,94,0.00,,,0.00,Wunderground v.1.15,2013-10-16 05:05:00,
2013-10-16 01:15:00,69.9,68.1,29.86,NE,41,0.0,0.0,94,0.00,,,0.00,Wunderground v.1.15,2013-10-16 05:15:00,
2013-10-16 01:25:00,69.8,68.3,29.86,NE,41,0.0,0.0,95,0.00,,,0.00,Wunderground v.1.15,2013-10-16 05:25:00,
2013-10-16 01:35:00,69.6,68.1,29.86,NE,41,0.0,0.0,95,0.00,,,0.00,Wunderground v.1.15,2013-10-16 05:35:00,
2013-10-16 01:45:00,69.6,68.1,29.86,NE,41,0.0,0.0,95,0.00,,,0.00,Wunderground v.1.15,2013-10-16 05:45:00,
2013-10-16 01:55:00,69.9,68.4,29.86,NE,56,1.0,3.0,95,0.00,,,0.00,Wunderground v.1.15,2013-10-16 05:55:00,
2013-10-16 02:05:00,69.9,68.7,29.86,NE,44,1.0,1.0,96,0.00,,,0.00,Wunderground v.1.15,2013-10-16 06:05:00,
2013-10-16 02:15:00,69.8,68.6,29.85,ENE,59,2.0,2.0,96,0.00,,,0.00,Wunderground v.1.15,2013-10-16 06:15:00,
2013-10-16 02:20:00,69.8,68.6,29.85,NNE,18,1.0,1.0,96,0.00,,,0.00,Wunderground v.1.15,2013-10-16 06:20:00,
2013-10-16 02:25:00,69.8,68.6,29.86,NE,52,1.0,1.0,96,0.00,,,0.00,Wunderground v.1.15,2013-10-16 06:25:00,
2013-10-16 02:35:00,69.6,68.4,29.86,ENE,57,0.0,1.0,96,0.00,,,0.00,Wunderground v.1.15,2013-10-16 06:35:00,
2013-10-16 02:45:00,69.6,68.4,29.85,NE,50,0.0,2.0,96,0.00,,,0.00,Wunderground v.1.15,2013-10-16 06:45:00,
2013-10-16 02:55:00,69.4,68.2,29.85,NE,49,0.0,4.0,96,0.00,,,0.00,Wunderground v.1.15,2013-10-16 06:55:00,
2013-10-16 03:00:00,69.6,68.4,29.85,ENE,73,1.0,1.0,96,0.00,,,0.00,Wunderground v.1.15,2013-10-16 07:00:00,
2013-10-16 03:10:00,69.6,68.4,29.85,ENE,68,0.0,6.0,96,0.00,,,0.00,Wunderground v.1.15,2013-10-16 07:10:00,
2013-10-16 03:20:00,69.4,68.2,29.85,East,82,1.0,6.0,96,0.00,,,0.00,Wunderground v.1.15,2013-10-16 07:20:00,
2013-10-16 03:30:00,69.4,68.2,29.85,NNE,33,1.0,1.0,96,0.00,,,0.00,Wunderground v.1.15,2013-10-16 07:30:00,
2013-10-16 03:40:00,69.4,68.2,29.85,ENE,70,0.0,6.0,96,0.00,,,0.00,Wunderground v.1.15,2013-10-16 07:40:00,
2013-10-16 03:45:00,69.4,68.2,29.85,ENE,58,1.0,6.0,96,0.00,,,0.00,Wunderground v.1.15,2013-10-16 07:45:00,
2013-10-16 03:55:00,69.6,68.4,29.85,ENE,61,1.0,4.0,96,0.00,,,0.00,Wunderground v.1.15,2013-10-16 07:55:00,
2013-10-16 04:05:00,69.6,68.4,29.85,NE,45,1.0,6.0,96,0.00,,,0.00,Wunderground v.1.15,2013-10-16 08:05:00,
2013-10-16 04:15:00,69.8,68.6,29.85,NE,41,0.0,6.0,96,0.00,,,0.00,Wunderground v.1.15,2013-10-16 08:15:00,
2013-10-16 04:25:00,69.8,68.6,29.85,East,84,0.0,6.0,96,0.00,,,0.00,Wunderground v.1.15,2013-10-16 08:25:00,
2013-10-16 04:35:00,69.9,68.7,29.85,East,84,0.0,6.0,96,0.00,,,0.00,Wunderground v.1.15,2013-10-16 08:35:00,
2013-10-16 04:45:00,69.9,68.4,29.85,ENE,65,1.0,6.0,95,0.00,,,0.00,Wunderground v.1.15,2013-10-16 08:45:00,
2013-10-16 04:55:00,69.9,68.4,29.85,NE,45,0.0,6.0,95,0.00,,,0.00,Wunderground v.1.15,2013-10-16 08:55:00,
2013-10-16 05:05:00,70.1,68.6,29.85,NE,45,1.0,6.0,95,0.00,,,0.00,Wunderground v.1.15,2013-10-16 09:05:00,
2013-10-16 05:15:00,70.1,68.3,29.84,ENE,60,0.0,6.0,94,0.00,,,0.00,Wunderground v.1.15,2013-10-16 09:15:00,
2013-10-16 05:25:00,70.1,68.3,29.85,ENE,60,0.0,6.0,94,0.00,,,0.00,Wunderground v.1.15,2013-10-16 09:25:00,
2013-10-16 05:35:00,70.3,68.5,29.85,ENE,60,0.0,6.0,94,0.00,,,0.00,Wunderground v.1.15,2013-10-16 09:35:00,
2013-10-16 05:45:00,70.1,68.3,29.85,ENE,73,0.0,6.0,94,0.00,,,0.00,Wunderground v.1.15,2013-10-16 09:45:00,
2013-10-16 05:55:00,70.3,68.5,29.85,ENE,73,0.0,6.0,94,0.00,,,0.00,Wunderground v.1.15,2013-10-16 09:55:00,
2013-10-16 06:05:00,70.1,68.0,29.85,ENE,73,0.0,6.0,93,0.00,,,0.00,Wunderground v.1.15,2013-10-16 10:05:00,
2013-10-16 06:15:00,69.9,67.8,29.85,ENE,73,0.0,0.0,93,0.00,,,0.00,Wunderground v.1.15,2013-10-16 10:15:00,
2013-10-16 06:25:00,69.9,67.8,29.86,ENE,73,0.0,0.0,93,0.00,,,0.00,Wunderground v.1.15,2013-10-16 10:25:00,
2013-10-16 06:35:00,69.8,67.7,29.86,ENE,73,0.0,0.0,93,0.00,,,0.00,Wunderground v.1.15,2013-10-16 10:35:00,
2013-10-16 06:45:00,69.4,67.6,29.86,ENE,73,0.0,0.0,94,0.00,,,0.00,Wunderground v.1.15,2013-10-16 10:45:00,
2013-10-16 06:55:00,69.4,67.6,29.86,ENE,73,0.0,0.0,94,0.00,,,0.00,Wunderground v.1.15,2013-10-16 10:55:00,
2013-10-16 07:05:00,69.3,67.5,29.86,ENE,73,0.0,0.0,94,0.00,,,0.00,Wunderground v.1.15,2013-10-16 11:05:00,
2013-10-16 07:15:00,69.3,67.5,29.87,ENE,73,0.0,0.0,94,0.00,,,0.00,Wunderground v.1.15,2013-10-16 11:15:00,
2013-10-16 07:25:00,69.1,67.3,29.87,ENE,73,0.0,0.0,94,0.00,,,0.00,Wunderground v.1.15,2013-10-16 11:25:00,
2013-10-16 07:30:00,68.9,67.4,29.87,ENE,73,0.0,0.0,95,0.00,,,0.00,Wunderground v.1.15,2013-10-16 11:30:00,
2013-10-16 07:35:00,68.9,67.4,29.87,ENE,73,0.0,0.0,95,0.00,,,0.00,Wunderground v.1.15,2013-10-16 11:35:00,
2013-10-16 07:45:00,69.1,67.6,29.87,ENE,73,0.0,0.0,95,0.00,,,0.00,Wunderground v.1.15,2013-10-16 11:45:00,
2013-10-16 07:55:00,69.3,68.1,29.87,ENE,73,0.0,0.0,96,0.00,,,0.00,Wunderground v.1.15,2013-10-16 11:55:00,
2013-10-16 08:05:00,69.4,68.2,29.87,ENE,73,0.0,0.0,96,0.00,,,0.00,Wunderground v.1.15,2013-10-16 12:05:00,
2013-10-16 08:10:00,69.6,68.4,29.87,ENE,73,0.0,0.0,96,0.00,,,0.00,Wunderground v.1.15,2013-10-16 12:10:00,
2013-10-16 08:20:00,70.1,68.9,29.87,ENE,73,0.0,0.0,96,0.00,,,0.00,Wunderground v.1.15,2013-10-16 12:20:00,
2013-10-16 08:30:00,70.3,69.1,29.87,ENE,73,0.0,0.0,96,0.00,,,0.00,Wunderground v.1.15,2013-10-16 12:30:00,
2013-10-16 08:40:00,70.6,69.1,29.88,ENE,63,1.0,1.0,95,0.00,,,0.00,Wunderground v.1.15,2013-10-16 12:40:00,
2013-10-16 08:50:00,70.8,69.3,29.88,NE,54,2.0,2.0,95,0.00,,,0.00,Wunderground v.1.15,2013-10-16 12:50:00,
2013-10-16 09:00:00,71.1,69.6,29.88,ENE,67,2.0,2.0,95,0.00,,,0.00,Wunderground v.1.15,2013-10-16 13:00:00,
2013-10-16 09:10:00,71.8,69.7,29.88,ESE,102,1.0,13.0,93,0.00,,,0.00,Wunderground v.1.15,2013-10-16 13:10:00,
2013-10-16 09:20:00,72.5,69.7,29.88,East,79,3.0,3.0,91,0.00,,,0.00,Wunderground v.1.15,2013-10-16 13:20:00,
2013-10-16 09:30:00,72.7,69.3,29.88,ENE,66,3.0,13.0,89,0.00,,,0.00,Wunderground v.1.15,2013-10-16 13:30:00,
2013-10-16 09:40:00,72.8,69.0,29.88,NE,56,3.0,3.0,88,0.00,,,0.00,Wunderground v.1.15,2013-10-16 13:40:00,
2013-10-16 09:50:00,73.5,69.7,29.88,East,100,2.0,13.0,88,0.00,,,0.00,Wunderground v.1.15,2013-10-16 13:50:00,
2013-10-16 10:00:00,73.9,69.8,29.88,ENE,60,1.0,1.0,87,0.00,,,0.00,Wunderground v.1.15,2013-10-16 14:00:00,
2013-10-16 10:10:00,74.4,69.6,29.88,NE,48,1.0,13.0,85,0.00,,,0.00,Wunderground v.1.15,2013-10-16 14:10:00,
2013-10-16 10:20:00,75.3,70.5,29.88,North,10,2.0,2.0,85,0.00,,,0.00,Wunderground v.1.15,2013-10-16 14:20:00,
2013-10-16 10:30:00,76.3,70.8,29.88,East,96,1.0,1.0,83,0.00,,,0.00,Wunderground v.1.15,2013-10-16 14:30:00,
2013-10-16 10:40:00,76.7,70.4,29.88,ESE,102,1.0,1.0,81,0.00,,,0.00,Wunderground v.1.15,2013-10-16 14:40:00,
2013-10-16 10:50:00,77.6,70.9,29.88,ENE,58,1.0,1.0,80,0.00,,,0.00,Wunderground v.1.15,2013-10-16 14:50:00,
2013-10-16 11:00:00,78.5,71.1,29.88,East,100,0.0,13.0,78,0.00,,,0.00,Wunderground v.1.15,2013-10-16 15:00:00,
2013-10-16 11:10:00,78.1,70.3,29.88,East,91,0.0,13.0,77,0.00,,,0.00,Wunderground v.1.15,2013-10-16 15:10:00,
2013-10-16 11:15:00,77.9,70.5,29.88,East,91,0.0,13.0,78,0.00,,,0.00,Wunderground v.1.15,2013-10-16 15:15:00,
2013-10-16 11:25:00,78.6,69.6,29.88,East,91,0.0,13.0,74,0.00,,,0.00,Wunderground v.1.15,2013-10-16 15:25:00,
2013-10-16 11:30:00,79.0,70.0,29.88,East,91,0.0,13.0,74,0.00,,,0.00,Wunderground v.1.15,2013-10-16 15:30:00,
2013-10-16 11:40:00,79.8,70.4,29.88,NNE,13,0.0,13.0,73,0.00,,,0.00,Wunderground v.1.15,2013-10-16 15:40:00,
2013-10-16 11:50:00,80.5,70.6,29.88,North,10,0.0,13.0,72,0.00,,,0.00,Wunderground v.1.15,2013-10-16 15:50:00,
2013-10-16 12:00:00,79.8,71.2,29.88,NNW,331,5.0,13.0,75,0.00,,,0.00,Wunderground v.1.15,2013-10-16 16:00:00,
2013-10-16 12:10:00,78.6,71.5,29.87,NW,321,11.0,11.0,79,0.00,,,0.00,Wunderground v.1.15,2013-10-16 16:10:00,
2013-10-16 12:15:00,78.8,71.4,29.87,NW,320,8.0,17.0,78,0.00,,,0.00,Wunderground v.1.15,2013-10-16 16:15:00,
2013-10-16 12:25:00,78.6,71.2,29.87,North,355,7.0,17.0,78,0.00,,,0.00,Wunderground v.1.15,2013-10-16 16:25:00,
2013-10-16 12:35:00,77.4,70.7,29.87,NW,318,10.0,17.0,80,0.00,,,0.00,Wunderground v.1.15,2013-10-16 16:35:00,
2013-10-16 12:45:00,77.6,70.9,29.86,North,349,9.0,12.0,80,0.00,,,0.00,Wunderground v.1.15,2013-10-16 16:45:00,
2013-10-16 12:55:00,77.9,71.2,29.86,West,271,9.0,14.0,80,0.00,,,0.00,Wunderground v.1.15,2013-10-16 16:55:00,
2013-10-16 13:00:00,77.9,72.0,29.86,West,280,9.0,9.0,82,0.00,,,0.00,Wunderground v.1.15,2013-10-16 17:00:00,
2013-10-16 13:10:00,77.7,70.7,29.86,West,269,11.0,17.0,79,0.00,,,0.00,Wunderground v.1.15,2013-10-16 17:10:00,
2013-10-16 13:20:00,78.6,71.2,29.86,NW,313,9.0,9.0,78,0.00,,,0.00,Wunderground v.1.15,2013-10-16 17:20:00,
2013-10-16 13:25:00,78.8,71.0,29.85,WNW,285,9.0,13.0,77,0.00,,,0.00,Wunderground v.1.15,2013-10-16 17:25:00,
2013-10-16 13:35:00,79.2,71.0,29.85,WNW,282,11.0,17.0,76,0.00,,,0.00,Wunderground v.1.15,2013-10-16 17:35:00,
2013-10-16 13:45:00,78.8,71.0,29.85,West,278,11.0,17.0,77,0.00,,,0.00,Wunderground v.1.15,2013-10-16 17:45:00,
2013-10-16 13:50:00,79.4,71.2,29.85,WNW,282,10.0,17.0,76,0.00,,,0.00,Wunderground v.1.15,2013-10-16 17:50:00,
2013-10-16 14:00:00,79.4,71.2,29.85,NW,309,11.0,11.0,76,0.00,,,0.00,Wunderground v.1.15,2013-10-16 18:00:00,
2013-10-16 14:10:00,79.2,71.4,29.85,WNW,288,12.0,12.0,77,0.00,,,0.00,Wunderground v.1.15,2013-10-16 18:10:00,
2013-10-16 14:20:00,78.8,70.6,29.85,WNW,285,7.0,17.0,76,0.00,,,0.00,Wunderground v.1.15,2013-10-16 18:20:00,
2013-10-16 14:30:00,78.8,69.8,29.84,WNW,294,11.0,17.0,74,0.00,,,0.00,Wunderground v.1.15,2013-10-16 18:30:00,
2013-10-16 14:40:00,79.0,69.6,29.84,West,259,10.0,10.0,73,0.00,,,0.00,Wunderground v.1.15,2013-10-16 18:40:00,
2013-10-16 14:50:00,79.6,69.8,29.84,West,268,9.0,17.0,72,0.00,,,0.00,Wunderground v.1.15,2013-10-16 18:50:00,
2013-10-16 14:55:00,79.4,69.6,29.83,NW,311,10.0,17.0,72,0.00,,,0.00,Wunderground v.1.15,2013-10-16 18:55:00,
2013-10-16 15:05:00,79.4,70.0,29.83,West,265,11.0,11.0,73,0.00,,,0.00,Wunderground v.1.15,2013-10-16 19:05:00,
2013-10-16 15:15:00,79.9,70.5,29.83,West,274,10.0,19.0,73,0.00,,,0.00,Wunderground v.1.15,2013-10-16 19:15:00,
2013-10-16 15:25:00,79.4,70.4,29.83,West,266,13.0,20.0,74,0.00,,,0.00,Wunderground v.1.15,2013-10-16 19:25:00,
2013-10-16 15:35:00,78.8,70.2,29.83,NNW,328,15.0,19.0,75,0.00,,,0.00,Wunderground v.1.15,2013-10-16 19:35:00,
2013-10-16 15:45:00,79.2,70.2,29.83,West,267,14.0,19.0,74,0.00,,,0.00,Wunderground v.1.15,2013-10-16 19:45:00,
2013-10-16 15:55:00,79.4,70.4,29.82,West,281,15.0,20.0,74,0.00,,,0.00,Wunderground v.1.15,2013-10-16 19:55:00,
2013-10-16 16:05:00,79.4,70.4,29.82,NW,311,16.0,17.0,74,0.00,,,0.00,Wunderground v.1.15,2013-10-16 20:05:00,
2013-10-16 16:15:00,79.6,70.2,29.82,WNW,282,13.0,15.0,73,0.00,,,0.00,Wunderground v.1.15,2013-10-16 20:15:00,
2013-10-16 16:25:00,79.4,70.4,29.82,WNW,303,13.0,19.0,74,0.00,,,0.00,Wunderground v.1.15,2013-10-16 20:25:00,
2013-10-16 16:35:00,79.8,70.4,29.82,WNW,285,10.0,19.0,73,0.00,,,0.00,Wunderground v.1.15,2013-10-16 20:35:00,
2013-10-16 16:45:00,79.6,70.2,29.82,West,281,11.0,19.0,73,0.00,,,0.00,Wunderground v.1.15,2013-10-16 20:45:00,
2013-10-16 16:55:00,79.4,70.0,29.82,NW,315,13.0,19.0,73,0.00,,,0.00,Wunderground v.1.15,2013-10-16 20:55:00,
2013-10-16 17:05:00,79.4,70.0,29.82,NNW,327,9.0,19.0,73,0.00,,,0.00,Wunderground v.1.15,2013-10-16 21:05:00,
2013-10-16 17:15:00,78.8,69.4,29.82,WNW,301,12.0,19.0,73,0.00,,,0.00,Wunderground v.1.15,2013-10-16 21:15:00,
2013-10-16 17:25:00,78.8,69.4,29.82,WNW,288,12.0,19.0,73,0.00,,,0.00,Wunderground v.1.15,2013-10-16 21:25:00,
2013-10-16 17:35:00,78.6,69.2,29.82,NW,314,13.0,19.0,73,0.00,,,0.00,Wunderground v.1.15,2013-10-16 21:35:00,
2013-10-16 17:45:00,78.6,68.8,29.82,NW,309,10.0,19.0,72,0.00,,,0.00,Wunderground v.1.15,2013-10-16 21:45:00,
2013-10-16 17:55:00,78.3,68.5,29.82,WNW,298,11.0,19.0,72,0.00,,,0.00,Wunderground v.1.15,2013-10-16 21:55:00,
2013-10-16 18:05:00,78.3,67.7,29.82,NW,316,10.0,19.0,70,0.00,,,0.00,Wunderground v.1.15,2013-10-16 22:05:00,
2013-10-16 18:10:00,78.3,67.3,29.82,NW,314,10.0,19.0,69,0.00,,,0.00,Wunderground v.1.15,2013-10-16 22:10:00,
2013-10-16 18:20:00,78.5,67.5,29.82,WNW,295,8.0,19.0,69,0.00,,,0.00,Wunderground v.1.15,2013-10-16 22:20:00,
2013-10-16 18:30:00,78.5,67.9,29.82,WNW,303,3.0,19.0,70,0.00,,,0.00,Wunderground v.1.15,2013-10-16 22:30:00,
2013-10-16 18:40:00,78.1,67.5,29.82,WNW,297,2.0,2.0,70,0.00,,,0.00,Wunderground v.1.15,2013-10-16 22:40:00,
2013-10-16 18:50:00,77.6,67.9,29.82,WNW,290,3.0,3.0,72,0.00,,,0.00,Wunderground v.1.15,2013-10-16 22:50:00,
2013-10-16 19:00:00,77.2,68.3,29.82,WNW,300,4.0,4.0,74,0.00,,,0.00,Wunderground v.1.15,2013-10-16 23:00:00,
2013-10-16 19:10:00,76.7,68.6,29.82,WNW,301,4.0,19.0,76,0.00,,,0.00,Wunderground v.1.15,2013-10-16 23:10:00,
2013-10-16 19:20:00,76.5,68.4,29.82,NW,309,6.0,6.0,76,0.00,,,0.00,Wunderground v.1.15,2013-10-16 23:20:00,
2013-10-16 19:30:00,76.3,68.2,29.83,NW,304,7.0,19.0,76,0.00,,,0.00,Wunderground v.1.15,2013-10-16 23:30:00,
2013-10-16 19:40:00,76.5,68.0,29.83,NW,315,4.0,4.0,75,0.00,,,0.00,Wunderground v.1.15,2013-10-16 23:40:00,
2013-10-16 19:50:00,76.5,68.0,29.83,NW,314,0.0,19.0,75,0.00,,,0.00,Wunderground v.1.15,2013-10-16 23:50:00,
2013-10-16 20:00:00,76.5,67.6,29.83,NW,314,2.0,2.0,74,0.00,,,0.00,Wunderground v.1.15,2013-10-17 00:00:00,
2013-10-16 20:10:00,76.5,68.0,29.83,NW,314,0.0,19.0,75,0.00,,,0.00,Wunderground v.1.15,2013-10-17 00:10:00,
2013-10-16 20:20:00,76.5,68.7,29.83,NW,319,1.0,1.0,77,0.00,,,0.00,Wunderground v.1.15,2013-10-17 00:20:00,
2013-10-16 20:25:00,76.5,68.7,29.84,NW,319,1.0,19.0,77,0.00,,,0.00,Wunderground v.1.15,2013-10-17 00:25:00,
2013-10-16 20:35:00,76.1,68.7,29.84,NW,325,0.0,19.0,78,0.00,,,0.00,Wunderground v.1.15,2013-10-17 00:35:00,
2013-10-16 20:45:00,76.0,68.6,29.85,NNW,328,1.0,19.0,78,0.00,,,0.00,Wunderground v.1.15,2013-10-17 00:45:00,
2013-10-16 20:55:00,75.6,68.3,29.85,NNW,337,2.0,7.0,78,0.00,,,0.00,Wunderground v.1.15,2013-10-17 00:55:00,
2013-10-16 21:05:00,75.4,68.1,29.85,NNW,340,1.0,19.0,78,0.00,,,0.00,Wunderground v.1.15,2013-10-17 01:05:00,
2013-10-16 21:15:00,75.3,68.3,29.85,NNW,341,0.0,13.0,79,0.00,,,0.00,Wunderground v.1.15,2013-10-17 01:15:00,
2013-10-16 21:25:00,75.1,68.1,29.86,NNW,341,0.0,13.0,79,0.00,,,0.00,Wunderground v.1.15,2013-10-17 01:25:00,
2013-10-16 21:35:00,75.1,68.1,29.86,NNW,341,0.0,13.0,79,0.00,,,0.00,Wunderground v.1.15,2013-10-17 01:35:00,
2013-10-16 21:45:00,74.9,68.3,29.86,NNW,341,0.0,13.0,80,0.00,,,0.00,Wunderground v.1.15,2013-10-17 01:45:00,
2013-10-16 21:55:00,74.7,68.5,29.87,NNW,341,0.0,13.0,81,0.00,,,0.00,Wunderground v.1.15,2013-10-17 01:55:00,
2013-10-16 22:05:00,74.7,68.5,29.87,NNW,341,0.0,13.0,81,0.00,,,0.00,Wunderground v.1.15,2013-10-17 02:05:00,
2013-10-16 22:15:00,74.6,68.4,29.87,NNW,341,0.0,13.0,81,0.00,,,0.00,Wunderground v.1.15,2013-10-17 02:15:00,
2013-10-16 22:25:00,74.4,68.5,29.87,NNW,341,0.0,13.0,82,0.00,,,0.00,Wunderground v.1.15,2013-10-17 02:25:00,
2013-10-16 22:35:00,74.2,68.3,29.87,NNW,341,0.0,13.0,82,0.00,,,0.00,Wunderground v.1.15,2013-10-17 02:35:00,
2013-10-16 22:45:00,73.9,68.4,29.88,NNW,341,0.0,13.0,83,0.00,,,0.00,Wunderground v.1.15,2013-10-17 02:45:00,
2013-10-16 22:55:00,73.5,68.4,29.88,NNW,341,0.0,13.0,84,0.00,,,0.00,Wunderground v.1.15,2013-10-17 02:55:00,
2013-10-16 23:05:00,73.2,68.4,29.88,NNW,341,0.0,13.0,85,0.00,,,0.00,Wunderground v.1.15,2013-10-17 03:05:00,
2013-10-16 23:15:00,73.0,68.6,29.88,NNW,341,0.0,13.0,86,0.00,,,0.00,Wunderground v.1.15,2013-10-17 03:15:00,
2013-10-16 23:25:00,72.5,68.4,29.87,NNW,341,0.0,13.0,87,0.00,,,0.00,Wunderground v.1.15,2013-10-17 03:25:00,
2013-10-16 23:35:00,72.5,68.7,29.87,NNW,341,0.0,13.0,88,0.00,,,0.00,Wunderground v.1.15,2013-10-17 03:35:00,
2013-10-16 23:45:00,72.1,68.3,29.87,NNW,341,0.0,13.0,88,0.00,,,0.00,Wunderground v.1.15,2013-10-17 03:45:00,
2013-10-16 23:50:00,72.1,68.3,29.87,NNW,341,0.0,13.0,88,0.00,,,0.00,Wunderground v.1.15,2013-10-17 03:50:00,